createdAt,value
2017-04-13T00:00:20.522Z,0
2017-04-13T00:01:32.758Z,0
2017-04-13T00:02:45.262Z,0
2017-04-13T00:03:57.801Z,0
2017-04-13T00:05:10.050Z,0
2017-04-13T00:06:22.570Z,0
2017-04-13T00:07:34.499Z,0
2017-04-13T00:08:47.025Z,0
2017-04-13T00:09:59.580Z,0
2017-04-13T00:11:11.829Z,0
2017-04-13T00:12:24.334Z,0
2017-04-13T00:13:36.894Z,0
2017-04-13T00:14:49.396Z,0
2017-04-13T00:16:01.935Z,0
2017-04-13T00:17:13.868Z,0
2017-04-13T00:18:26.427Z,0
2017-04-13T00:19:38.957Z,0
2017-04-13T00:20:51.483Z,0
2017-04-13T00:22:03.722Z,0
2017-04-13T00:23:16.261Z,0
2017-04-13T00:24:28.839Z,0
2017-04-13T00:25:41.381Z,0
2017-04-13T00:26:53.902Z,0
2017-04-13T00:28:06.177Z,0
2017-04-13T00:29:18.715Z,0
2017-04-13T00:30:30.646Z,0
2017-04-13T00:31:43.192Z,0
2017-04-13T00:32:55.436Z,0
2017-04-13T00:34:07.657Z,0
2017-04-13T00:35:20.444Z,0
2017-04-13T00:36:32.973Z,0
2017-04-13T00:37:45.191Z,0
2017-04-13T00:38:57.761Z,0
2017-04-13T00:40:10.320Z,0
2017-04-13T00:41:22.877Z,0
2017-04-13T00:42:35.396Z,0
2017-04-13T00:43:47.944Z,0
2017-04-13T00:45:00.169Z,0
2017-04-13T00:46:12.383Z,0
2017-04-13T00:47:24.914Z,0
2017-04-13T00:48:37.129Z,0
2017-04-13T00:49:49.657Z,0
2017-04-13T00:51:02.206Z,0
2017-04-13T00:52:14.762Z,0
2017-04-13T00:53:26.990Z,0
2017-04-13T00:54:39.217Z,0
2017-04-13T00:55:51.736Z,0
2017-04-13T00:57:04.258Z,0
2017-04-13T00:58:16.800Z,0
2017-04-13T00:59:29.354Z,0
2017-04-13T01:00:41.617Z,0
2017-04-13T01:01:54.465Z,0
2017-04-13T01:03:06.443Z,0
2017-04-13T01:04:18.683Z,0
2017-04-13T01:05:31.199Z,0
2017-04-13T01:06:43.716Z,0
2017-04-13T01:07:56.521Z,0
2017-04-13T01:09:09.063Z,0
2017-04-13T01:10:21.583Z,0
2017-04-13T01:11:34.105Z,0
2017-04-13T01:12:46.628Z,0
2017-04-13T01:13:59.146Z,0
2017-04-13T01:15:11.688Z,0
2017-04-13T01:16:24.213Z,0
2017-04-13T01:17:36.735Z,0
2017-04-13T01:18:49.575Z,0
2017-04-13T01:20:02.093Z,0
2017-04-13T01:21:14.621Z,0
2017-04-13T01:22:26.821Z,0
2017-04-13T01:23:39.645Z,0
2017-04-13T01:24:52.217Z,0
2017-04-13T01:26:04.757Z,0
2017-04-13T01:27:17.296Z,0
2017-04-13T01:28:29.801Z,0
2017-04-13T01:29:42.317Z,0
2017-04-13T01:30:54.820Z,0
2017-04-13T01:32:07.064Z,0
2017-04-13T01:33:19.322Z,0
2017-04-13T01:34:31.870Z,0
2017-04-13T01:35:44.402Z,0
2017-04-13T01:36:56.952Z,0
2017-04-13T01:38:09.490Z,0
2017-04-13T01:39:21.762Z,0
2017-04-13T01:40:34.302Z,0
2017-04-13T01:41:46.528Z,0
2017-04-13T01:42:59.048Z,0
2017-04-13T01:44:11.568Z,0
2017-04-13T01:45:24.068Z,0
2017-04-13T01:46:36.589Z,0
2017-04-13T01:47:49.131Z,0
2017-04-13T01:49:01.652Z,0
2017-04-13T01:50:14.166Z,0
2017-04-13T01:51:26.973Z,0
2017-04-13T01:52:39.532Z,0
2017-04-13T01:53:52.081Z,0
2017-04-13T01:55:04.610Z,0
2017-04-13T01:56:16.858Z,0
2017-04-13T01:57:29.077Z,0
2017-04-13T01:58:41.615Z,0
2017-04-13T01:59:53.841Z,0
2017-04-13T02:01:06.379Z,0
2017-04-13T02:02:18.903Z,0
2017-04-13T02:03:31.433Z,0
2017-04-13T02:04:43.994Z,0
2017-04-13T02:05:56.227Z,0
2017-04-13T02:07:08.744Z,0
2017-04-13T02:08:21.301Z,0
2017-04-13T02:09:33.851Z,0
2017-04-13T02:10:46.354Z,0
2017-04-13T02:11:58.875Z,0
2017-04-13T02:13:11.638Z,0
2017-04-13T02:14:24.170Z,0
2017-04-13T02:15:36.691Z,0
2017-04-13T02:16:49.215Z,0
2017-04-13T02:18:01.757Z,0
2017-04-13T02:19:13.728Z,0
2017-04-13T02:20:26.268Z,0
2017-04-13T02:21:38.767Z,0
2017-04-13T02:22:50.991Z,0
2017-04-13T02:24:03.533Z,0
2017-04-13T02:25:16.030Z,0
2017-04-13T02:26:28.559Z,0
2017-04-13T02:27:41.072Z,0
2017-04-13T02:28:53.646Z,0
2017-04-13T02:30:06.169Z,0
2017-04-13T02:31:18.453Z,0
2017-04-13T02:32:30.981Z,0
2017-04-13T02:33:43.522Z,0
2017-04-13T02:34:56.322Z,0
2017-04-13T02:36:08.885Z,0
2017-04-13T02:37:21.417Z,0
2017-04-13T02:38:33.938Z,0
2017-04-13T02:39:46.765Z,0
2017-04-13T02:40:58.981Z,0
2017-04-13T02:42:11.179Z,0
2017-04-13T02:43:23.792Z,0
2017-04-13T02:44:36.290Z,0
2017-04-13T02:45:48.814Z,0
2017-04-13T02:47:01.356Z,0
2017-04-13T02:48:13.594Z,0
2017-04-13T02:49:26.123Z,0
2017-04-13T02:50:38.619Z,0
2017-04-13T02:51:51.160Z,0
2017-04-13T02:53:03.681Z,0
2017-04-13T02:54:15.881Z,0
2017-04-13T02:55:28.404Z,0
2017-04-13T02:56:40.929Z,0
2017-04-13T02:57:53.503Z,0
2017-04-13T02:59:06.018Z,0
2017-04-13T03:00:18.534Z,0
2017-04-13T03:01:30.810Z,0
2017-04-13T03:02:43.353Z,0
2017-04-13T03:03:55.896Z,0
2017-04-13T03:05:08.437Z,0
2017-04-13T03:06:20.969Z,0
2017-04-13T03:07:33.503Z,0
2017-04-13T03:08:45.736Z,0
2017-04-13T03:09:57.928Z,0
2017-04-13T03:11:10.427Z,0
2017-04-13T03:12:22.648Z,0
2017-04-13T03:13:34.866Z,0
2017-04-13T03:14:47.408Z,0
2017-04-13T03:15:59.634Z,0
2017-04-13T03:17:12.147Z,0
2017-04-13T03:18:24.971Z,0
2017-04-13T03:19:37.187Z,0
2017-04-13T03:20:49.721Z,0
2017-04-13T03:22:02.263Z,0
2017-04-13T03:23:14.808Z,0
2017-04-13T03:24:27.360Z,0
2017-04-13T03:25:39.930Z,0
2017-04-13T03:26:52.451Z,0
2017-04-13T03:28:05.020Z,0
2017-04-13T03:29:17.239Z,0
2017-04-13T03:30:29.777Z,0
2017-04-13T03:31:42.283Z,0
2017-04-13T03:32:54.809Z,0
2017-04-13T03:34:07.025Z,0
2017-04-13T03:35:19.588Z,0
2017-04-13T03:36:32.114Z,0
2017-04-13T03:37:44.664Z,0
2017-04-13T03:38:56.915Z,0
2017-04-13T03:40:09.452Z,0
2017-04-13T03:41:21.964Z,0
2017-04-13T03:42:34.199Z,0
2017-04-13T03:43:46.689Z,0
2017-04-13T03:44:59.260Z,0
2017-04-13T03:46:11.782Z,0
2017-04-13T03:47:24.276Z,0
2017-04-13T03:48:36.500Z,0
2017-04-13T03:49:49.020Z,0
2017-04-13T03:51:01.857Z,0
2017-04-13T03:52:14.391Z,0
2017-04-13T03:53:26.581Z,0
2017-04-13T03:54:39.104Z,0
2017-04-13T03:55:51.644Z,0
2017-04-13T03:57:04.165Z,0
2017-04-13T03:58:16.693Z,0
2017-04-13T03:59:29.211Z,0
2017-04-13T04:00:41.717Z,0
2017-04-13T04:01:54.558Z,0
2017-04-13T04:03:06.780Z,5
2017-04-13T04:04:18.999Z,5
2017-04-13T04:05:31.558Z,5
2017-04-13T04:06:44.078Z,5
2017-04-13T04:07:56.612Z,5
2017-04-13T04:09:08.856Z,5
2017-04-13T04:10:21.374Z,10
2017-04-13T04:11:33.911Z,10
2017-04-13T04:12:46.417Z,15
2017-04-13T04:13:58.940Z,15
2017-04-13T04:15:11.486Z,15
2017-04-13T04:16:23.703Z,15
2017-04-13T04:17:36.241Z,20
2017-04-13T04:18:48.788Z,20
2017-04-13T04:20:01.334Z,25
2017-04-13T04:21:13.838Z,25
2017-04-13T04:22:26.366Z,25
2017-04-13T04:23:38.908Z,30
2017-04-13T04:24:51.446Z,30
2017-04-13T04:26:03.973Z,35
2017-04-13T04:27:16.496Z,35
2017-04-13T04:28:29.012Z,40
2017-04-13T04:29:41.529Z,40
2017-04-13T04:30:54.029Z,45
2017-04-13T04:32:06.556Z,45
2017-04-13T04:33:19.089Z,50
2017-04-13T04:34:31.618Z,50
2017-04-13T04:35:44.134Z,50
2017-04-13T04:36:56.633Z,60
2017-04-13T04:38:09.163Z,65
2017-04-13T04:39:21.721Z,65
2017-04-13T04:40:34.221Z,75
2017-04-13T04:41:46.460Z,80
2017-04-13T04:42:58.983Z,85
2017-04-13T04:44:11.209Z,85
2017-04-13T04:45:23.997Z,85
2017-04-13T04:46:36.201Z,100
2017-04-13T04:47:48.747Z,115
2017-04-13T04:49:01.260Z,135
2017-04-13T04:50:13.771Z,135
2017-04-13T04:51:26.288Z,135
2017-04-13T04:52:38.506Z,130
2017-04-13T04:53:51.022Z,125
2017-04-13T04:55:03.523Z,135
2017-04-13T04:56:16.019Z,145
2017-04-13T04:57:28.543Z,145
2017-04-13T04:58:41.052Z,150
2017-04-13T04:59:53.559Z,155
2017-04-13T05:01:06.077Z,140
2017-04-13T05:02:18.580Z,155
2017-04-13T05:03:31.110Z,160
2017-04-13T05:04:43.340Z,165
2017-04-13T05:05:55.839Z,175
2017-04-13T05:07:08.402Z,170
2017-04-13T05:08:20.678Z,185
2017-04-13T05:09:33.202Z,190
2017-04-13T05:10:45.719Z,185
2017-04-13T05:11:58.268Z,195
2017-04-13T05:13:10.786Z,200
2017-04-13T05:14:23.003Z,210
2017-04-13T05:15:35.504Z,205
2017-04-13T05:16:47.999Z,185
2017-04-13T05:18:00.537Z,170
2017-04-13T05:19:13.033Z,145
2017-04-13T05:20:25.558Z,135
2017-04-13T05:21:37.782Z,140
2017-04-13T05:22:50.282Z,145
2017-04-13T05:24:02.827Z,155
2017-04-13T05:25:15.350Z,165
2017-04-13T05:26:27.867Z,165
2017-04-13T05:27:40.387Z,170
2017-04-13T05:28:53.134Z,170
2017-04-13T05:30:05.657Z,175
2017-04-13T05:31:18.196Z,175
2017-04-13T05:32:30.721Z,180
2017-04-13T05:33:42.962Z,180
2017-04-13T05:34:55.167Z,180
2017-04-13T05:36:07.658Z,180
2017-04-13T05:37:19.879Z,180
2017-04-13T05:38:32.396Z,185
2017-04-13T05:39:45.174Z,185
2017-04-13T05:40:57.717Z,185
2017-04-13T05:42:10.242Z,195
2017-04-13T05:43:22.762Z,190
2017-04-13T05:44:35.284Z,195
2017-04-13T05:45:47.825Z,195
2017-04-13T05:47:00.353Z,195
2017-04-13T05:48:12.897Z,205
2017-04-13T05:49:25.432Z,200
2017-04-13T05:50:37.985Z,205
2017-04-13T05:51:50.534Z,210
2017-04-13T05:53:03.030Z,210
2017-04-13T05:54:15.551Z,210
2017-04-13T05:55:28.089Z,225
2017-04-13T05:56:40.618Z,225
2017-04-13T05:57:53.135Z,230
2017-04-13T05:59:05.676Z,230
2017-04-13T06:00:18.224Z,240
2017-04-13T06:01:30.751Z,235
2017-04-13T06:02:42.973Z,250
2017-04-13T06:03:55.469Z,310
2017-04-13T06:05:08.027Z,275
2017-04-13T06:06:20.253Z,250
2017-04-13T06:07:32.794Z,240
2017-04-13T06:08:45.040Z,405
2017-04-13T06:09:57.569Z,415
2017-04-13T06:11:10.061Z,470
2017-04-13T06:12:22.312Z,565
2017-04-13T06:13:34.252Z,595
2017-04-13T06:14:46.778Z,510
2017-04-13T06:15:59.348Z,610
2017-04-13T06:17:11.872Z,540
2017-04-13T06:18:24.393Z,345
2017-04-13T06:19:36.931Z,365
2017-04-13T06:20:49.449Z,290
2017-04-13T06:22:01.977Z,410
2017-04-13T06:23:14.803Z,665
2017-04-13T06:24:27.337Z,525
2017-04-13T06:25:39.843Z,470
2017-04-13T06:26:52.378Z,645
2017-04-13T06:28:04.939Z,815
2017-04-13T06:29:17.471Z,1180
2017-04-13T06:30:30.016Z,1105
2017-04-13T06:31:41.942Z,780
2017-04-13T06:32:54.490Z,650
2017-04-13T06:34:07.016Z,530
2017-04-13T06:35:19.558Z,545
2017-04-13T06:36:32.098Z,650
2017-04-13T06:37:44.004Z,725
2017-04-13T06:38:56.525Z,795
2017-04-13T06:40:09.066Z,585
2017-04-13T06:41:21.315Z,530
2017-04-13T06:42:33.612Z,465
2017-04-13T06:43:45.829Z,415
2017-04-13T06:44:58.620Z,540
2017-04-13T06:46:11.145Z,770
2017-04-13T06:47:23.393Z,345
2017-04-13T06:48:35.909Z,1610
2017-04-13T06:49:48.458Z,1600
2017-04-13T06:51:00.984Z,1705
2017-04-13T06:52:13.257Z,1575
2017-04-13T06:53:25.792Z,485
2017-04-13T06:54:38.334Z,810
2017-04-13T06:55:50.863Z,880
2017-04-13T06:57:03.385Z,1015
2017-04-13T06:58:15.633Z,995
2017-04-13T06:59:27.855Z,880
2017-04-13T07:00:40.403Z,355
2017-04-13T07:01:52.321Z,830
2017-04-13T07:03:04.892Z,1135
2017-04-13T07:04:17.437Z,550
2017-04-13T07:05:29.980Z,715
2017-04-13T07:06:42.529Z,650
2017-04-13T07:07:55.097Z,545
2017-04-13T07:09:07.635Z,485
2017-04-13T07:10:19.570Z,665
2017-04-13T07:11:32.113Z,660
2017-04-13T07:12:44.654Z,605
2017-04-13T07:13:57.170Z,675
2017-04-13T07:15:09.715Z,1030
2017-04-13T07:16:21.948Z,655
2017-04-13T07:17:34.740Z,360
2017-04-13T07:18:46.963Z,745
2017-04-13T07:19:59.509Z,945
2017-04-13T07:21:12.047Z,1330
2017-04-13T07:22:24.601Z,565
2017-04-13T07:23:37.118Z,1670
2017-04-13T07:24:49.343Z,355
2017-04-13T07:26:01.603Z,2055
2017-04-13T07:27:14.153Z,2145
2017-04-13T07:28:26.698Z,2115
2017-04-13T07:29:38.623Z,1310
2017-04-13T07:30:50.861Z,475
2017-04-13T07:32:02.811Z,505
2017-04-13T07:33:15.053Z,630
2017-04-13T07:34:26.981Z,2190
2017-04-13T07:35:38.624Z,2140
2017-04-13T07:36:50.873Z,2280
2017-04-13T07:38:03.094Z,2230
2017-04-13T07:39:15.345Z,2225
2017-04-13T07:40:27.281Z,2210
2017-04-13T07:41:39.507Z,2475
2017-04-13T07:42:51.749Z,2370
2017-04-13T07:44:04.250Z,670
2017-04-13T07:45:16.820Z,1590
2017-04-13T07:46:29.034Z,2005
2017-04-13T07:47:41.591Z,1800
2017-04-13T07:48:54.133Z,2240
2017-04-13T07:50:06.086Z,2540
2017-04-13T07:51:18.343Z,730
2017-04-13T07:52:30.570Z,865
2017-04-13T07:53:42.216Z,805
2017-04-13T07:54:54.137Z,2625
2017-04-13T07:56:06.058Z,1185
2017-04-13T07:57:17.697Z,650
2017-04-13T07:58:30.222Z,895
2017-04-13T07:59:41.867Z,1015
2017-04-13T08:00:53.800Z,610
2017-04-13T08:02:06.019Z,345
2017-04-13T08:03:18.276Z,470
2017-04-13T08:04:30.826Z,710
2017-04-13T08:05:43.069Z,825
2017-04-13T08:06:55.597Z,610
2017-04-13T08:08:07.520Z,750
2017-04-13T08:09:19.760Z,460
2017-04-13T08:10:31.695Z,430
2017-04-13T08:11:43.930Z,685
2017-04-13T08:12:55.897Z,730
2017-04-13T08:14:08.140Z,880
2017-04-13T08:15:20.361Z,830
2017-04-13T08:16:32.590Z,510
2017-04-13T08:17:44.239Z,580
2017-04-13T08:18:56.477Z,630
2017-04-13T08:20:08.083Z,400
2017-04-13T08:21:20.303Z,340
2017-04-13T08:22:32.519Z,380
2017-04-13T08:23:44.510Z,620
2017-04-13T08:24:56.714Z,885
2017-04-13T08:26:08.949Z,810
2017-04-13T08:27:21.178Z,820
2017-04-13T08:28:33.123Z,705
2017-04-13T08:29:45.324Z,770
2017-04-13T08:30:57.575Z,485
2017-04-13T08:32:10.115Z,400
2017-04-13T08:33:22.648Z,510
2017-04-13T08:34:34.896Z,800
2017-04-13T08:35:46.249Z,630
2017-04-13T08:36:58.492Z,350
2017-04-13T08:38:10.435Z,410
2017-04-13T08:39:22.662Z,665
2017-04-13T08:40:34.876Z,1040
2017-04-13T08:41:47.100Z,1080
2017-04-13T08:42:59.346Z,1245
2017-04-13T08:44:11.574Z,830
2017-04-13T08:45:23.496Z,635
2017-04-13T08:46:35.738Z,730
2017-04-13T08:47:47.659Z,815
2017-04-13T08:49:00.210Z,805
2017-04-13T08:50:12.459Z,735
2017-04-13T08:51:24.974Z,770
2017-04-13T08:52:37.547Z,395
2017-04-13T08:53:49.835Z,205
2017-04-13T08:55:02.088Z,170
2017-04-13T08:56:14.330Z,170
2017-04-13T08:57:26.855Z,345
2017-04-13T08:58:39.047Z,370
2017-04-13T08:59:50.714Z,295
2017-04-13T09:01:02.383Z,440
2017-04-13T09:02:13.706Z,570
2017-04-13T09:03:25.951Z,635
2017-04-13T09:04:37.606Z,785
2017-04-13T09:05:49.825Z,825
2017-04-13T09:07:01.144Z,555
2017-04-13T09:08:13.040Z,605
2017-04-13T09:09:24.978Z,525
2017-04-13T09:10:37.498Z,465
2017-04-13T09:11:49.448Z,445
2017-04-13T09:13:01.693Z,445
2017-04-13T09:14:14.238Z,545
2017-04-13T09:15:26.470Z,675
2017-04-13T09:16:38.689Z,795
2017-04-13T09:17:50.910Z,700
2017-04-13T09:19:03.451Z,810
2017-04-13T09:20:15.374Z,890
2017-04-13T09:21:27.298Z,1025
2017-04-13T09:22:39.549Z,900
2017-04-13T09:23:51.469Z,1115
2017-04-13T09:25:03.410Z,1140
2017-04-13T09:26:15.935Z,1165
2017-04-13T09:27:28.505Z,980
2017-04-13T09:28:41.067Z,580
2017-04-13T09:29:53.284Z,695
2017-04-13T09:31:05.534Z,985
2017-04-13T09:32:18.076Z,980
2017-04-13T09:33:30.300Z,815
2017-04-13T09:34:42.825Z,685
2017-04-13T09:35:55.350Z,615
2017-04-13T09:37:07.592Z,620
2017-04-13T09:38:20.408Z,355
2017-04-13T09:39:32.955Z,405
2017-04-13T09:40:44.601Z,485
2017-04-13T09:41:56.868Z,515
2017-04-13T09:43:09.111Z,595
2017-04-13T09:44:21.648Z,605
2017-04-13T09:45:34.218Z,775
2017-04-13T09:46:46.460Z,950
2017-04-13T09:47:58.982Z,920
2017-04-13T09:49:11.226Z,845
2017-04-13T09:50:23.447Z,855
2017-04-13T09:51:35.388Z,1145
2017-04-13T09:52:46.435Z,785
2017-04-13T09:53:58.077Z,825
2017-04-13T09:55:10.626Z,810
2017-04-13T09:56:22.551Z,950
2017-04-13T09:57:35.093Z,1095
2017-04-13T09:58:47.622Z,1070
2017-04-13T10:00:00.170Z,985
2017-04-13T10:01:12.128Z,940
2017-04-13T10:02:24.674Z,1085
2017-04-13T10:03:37.206Z,1060
2017-04-13T10:04:49.457Z,725
2017-04-13T10:06:01.736Z,730
2017-04-13T10:07:13.691Z,825
2017-04-13T10:08:25.312Z,875
2017-04-13T10:09:37.549Z,1055
2017-04-13T10:10:49.175Z,830
2017-04-13T10:12:00.801Z,695
2017-04-13T10:13:12.721Z,535
2017-04-13T10:14:24.936Z,585
2017-04-13T10:15:37.480Z,510
2017-04-13T10:16:49.728Z,475
2017-04-13T10:18:01.370Z,550
2017-04-13T10:19:13.321Z,545
2017-04-13T10:20:25.573Z,675
2017-04-13T10:21:38.097Z,720
2017-04-13T10:22:50.340Z,895
2017-04-13T10:24:01.976Z,725
2017-04-13T10:25:14.521Z,760
2017-04-13T10:26:26.451Z,960
2017-04-13T10:27:38.692Z,2455
2017-04-13T10:28:50.912Z,2825
2017-04-13T10:30:03.455Z,940
2017-04-13T10:31:15.409Z,890
2017-04-13T10:32:27.648Z,680
2017-04-13T10:33:40.200Z,670
2017-04-13T10:34:52.439Z,1170
2017-04-13T10:36:04.987Z,1035
2017-04-13T10:37:17.505Z,855
2017-04-13T10:38:30.052Z,1455
2017-04-13T10:39:42.301Z,1055
2017-04-13T10:40:54.847Z,715
2017-04-13T10:42:07.106Z,515
2017-04-13T10:43:19.664Z,440
2017-04-13T10:44:31.907Z,455
2017-04-13T10:45:44.470Z,440
2017-04-13T10:46:56.698Z,350
2017-04-13T10:48:09.230Z,280
2017-04-13T10:49:21.773Z,310
2017-04-13T10:50:33.698Z,390
2017-04-13T10:51:45.350Z,440
2017-04-13T10:52:57.285Z,525
2017-04-13T10:54:09.807Z,810
2017-04-13T10:55:21.444Z,1115
2017-04-13T10:56:33.679Z,2775
2017-04-13T10:57:45.914Z,4195
2017-04-13T10:58:58.143Z,1090
2017-04-13T11:00:09.163Z,4640
2017-04-13T11:01:21.147Z,1485
2017-04-13T11:02:33.078Z,1165
2017-04-13T11:03:45.302Z,1085
2017-04-13T11:04:57.862Z,1085
2017-04-13T11:06:10.395Z,1095
2017-04-13T11:07:22.916Z,1115
2017-04-13T11:08:34.832Z,1170
2017-04-13T11:09:47.107Z,1080
2017-04-13T11:10:59.351Z,1180
2017-04-13T11:12:11.317Z,1215
2017-04-13T11:13:23.283Z,1130
2017-04-13T11:14:35.512Z,1055
2017-04-13T11:15:47.436Z,1190
2017-04-13T11:16:59.954Z,1175
2017-04-13T11:18:12.220Z,1265
2017-04-13T11:19:23.563Z,1340
2017-04-13T11:20:36.078Z,1415
2017-04-13T11:21:48.280Z,1440
2017-04-13T11:23:00.208Z,1125
2017-04-13T11:24:12.434Z,795
2017-04-13T11:25:24.655Z,875
2017-04-13T11:26:36.924Z,1045
2017-04-13T11:27:48.847Z,1165
2017-04-13T11:29:01.087Z,1245
2017-04-13T11:30:13.014Z,1390
2017-04-13T11:31:24.959Z,1615
2017-04-13T11:32:37.517Z,1565
2017-04-13T11:33:50.089Z,1495
2017-04-13T11:35:02.324Z,1570
2017-04-13T11:36:14.840Z,1585
2017-04-13T11:37:27.634Z,1940
2017-04-13T11:38:39.255Z,2000
2017-04-13T11:39:51.204Z,1815
2017-04-13T11:41:03.775Z,2290
2017-04-13T11:42:15.992Z,2685
2017-04-13T11:43:28.218Z,2240
2017-04-13T11:44:40.790Z,1580
2017-04-13T11:45:53.052Z,1395
2017-04-13T11:47:05.295Z,850
2017-04-13T11:48:17.840Z,685
2017-04-13T11:49:30.414Z,935
2017-04-13T11:50:42.067Z,1000
2017-04-13T11:51:54.306Z,930
2017-04-13T11:53:05.932Z,825
2017-04-13T11:54:17.852Z,625
2017-04-13T11:55:30.083Z,460
2017-04-13T11:56:42.337Z,485
2017-04-13T11:57:54.547Z,525
2017-04-13T11:59:07.107Z,560
2017-04-13T12:00:19.339Z,765
2017-04-13T12:01:31.305Z,1115
2017-04-13T12:02:42.970Z,1035
2017-04-13T12:03:54.923Z,835
2017-04-13T12:05:07.440Z,695
2017-04-13T12:06:19.664Z,475
2017-04-13T12:07:31.911Z,275
2017-04-13T12:08:44.144Z,180
2017-04-13T12:09:56.400Z,200
2017-04-13T12:11:08.673Z,250
2017-04-13T12:12:20.921Z,255
2017-04-13T12:13:33.155Z,325
2017-04-13T12:14:45.385Z,370
2017-04-13T12:15:57.926Z,355
2017-04-13T12:17:09.871Z,355
2017-04-13T12:18:22.399Z,300
2017-04-13T12:19:34.617Z,250
2017-04-13T12:20:47.138Z,210
2017-04-13T12:21:59.677Z,165
2017-04-13T12:23:11.881Z,140
2017-04-13T12:24:24.177Z,130
2017-04-13T12:25:36.127Z,125
2017-04-13T12:26:48.371Z,145
2017-04-13T12:28:00.913Z,185
2017-04-13T12:29:13.140Z,260
2017-04-13T12:30:25.382Z,370
2017-04-13T12:31:37.300Z,530
2017-04-13T12:32:49.267Z,665
2017-04-13T12:34:01.818Z,735
2017-04-13T12:35:14.367Z,690
2017-04-13T12:36:26.303Z,555
2017-04-13T12:37:38.534Z,510
2017-04-13T12:38:51.050Z,755
2017-04-13T12:40:02.698Z,765
2017-04-13T12:41:14.926Z,600
2017-04-13T12:42:27.457Z,565
2017-04-13T12:43:39.660Z,630
2017-04-13T12:44:52.209Z,755
2017-04-13T12:46:04.752Z,635
2017-04-13T12:47:16.715Z,385
2017-04-13T12:48:28.646Z,275
2017-04-13T12:49:40.892Z,245
2017-04-13T12:50:53.113Z,230
2017-04-13T12:52:05.352Z,220
2017-04-13T12:53:17.870Z,250
2017-04-13T12:54:29.802Z,370
2017-04-13T12:55:42.040Z,590
2017-04-13T12:56:54.568Z,775
2017-04-13T12:58:06.812Z,925
2017-04-13T12:59:19.353Z,1025
2017-04-13T13:00:31.878Z,1025
2017-04-13T13:01:43.799Z,995
2017-04-13T13:02:56.348Z,815
2017-04-13T13:04:08.586Z,640
2017-04-13T13:05:21.112Z,545
2017-04-13T13:06:33.037Z,430
2017-04-13T13:07:45.556Z,385
2017-04-13T13:08:57.527Z,355
2017-04-13T13:10:09.745Z,350
2017-04-13T13:11:22.288Z,350
2017-04-13T13:12:34.219Z,350
2017-04-13T13:13:46.451Z,350
2017-04-13T13:14:58.056Z,355
2017-04-13T13:16:10.596Z,360
2017-04-13T13:17:22.226Z,355
2017-04-13T13:18:33.825Z,375
2017-04-13T13:19:45.465Z,400
2017-04-13T13:20:57.387Z,415
2017-04-13T13:22:09.648Z,450
2017-04-13T13:23:22.201Z,360
2017-04-13T13:24:34.723Z,325
2017-04-13T13:25:46.939Z,355
2017-04-13T13:26:59.166Z,355
2017-04-13T13:28:11.077Z,365
2017-04-13T13:29:23.305Z,390
2017-04-13T13:30:35.844Z,375
2017-04-13T13:31:47.790Z,430
2017-04-13T13:33:00.021Z,500
2017-04-13T13:34:12.585Z,570
2017-04-13T13:35:24.853Z,675
2017-04-13T13:36:36.502Z,630
2017-04-13T13:37:48.420Z,550
2017-04-13T13:39:00.716Z,465
2017-04-13T13:40:13.266Z,350
2017-04-13T13:41:25.192Z,280
2017-04-13T13:42:36.816Z,240
2017-04-13T13:43:49.036Z,215
2017-04-13T13:45:01.568Z,260
2017-04-13T13:46:13.218Z,420
2017-04-13T13:47:25.461Z,605
2017-04-13T13:48:37.665Z,640
2017-04-13T13:49:49.960Z,730
2017-04-13T13:51:01.861Z,1075
2017-04-13T13:52:14.453Z,1095
2017-04-13T13:53:26.379Z,730
2017-04-13T13:54:38.623Z,555
2017-04-13T13:55:50.566Z,455
2017-04-13T13:57:03.079Z,395
2017-04-13T13:58:15.313Z,365
2017-04-13T13:59:27.256Z,355
2017-04-13T14:00:39.817Z,355
2017-04-13T14:01:52.041Z,365
2017-04-13T14:03:03.344Z,405
2017-04-13T14:04:15.289Z,380
2017-04-13T14:05:27.828Z,370
2017-04-13T14:06:40.371Z,395
2017-04-13T14:07:52.875Z,455
2017-04-13T14:09:05.700Z,555
2017-04-13T14:10:18.245Z,595
2017-04-13T14:11:30.767Z,475
2017-04-13T14:12:42.687Z,450
2017-04-13T14:13:55.225Z,375
2017-04-13T14:15:07.453Z,345
2017-04-13T14:16:19.093Z,340
2017-04-13T14:17:30.734Z,360
2017-04-13T14:18:43.266Z,350
2017-04-13T14:19:55.205Z,390
2017-04-13T14:21:07.730Z,485
2017-04-13T14:22:20.254Z,560
2017-04-13T14:23:32.191Z,575
2017-04-13T14:24:43.822Z,585
2017-04-13T14:25:56.369Z,615
2017-04-13T14:27:08.927Z,580
2017-04-13T14:28:21.473Z,510
2017-04-13T14:29:34.002Z,535
2017-04-13T14:30:46.543Z,455
2017-04-13T14:31:59.073Z,350
2017-04-13T14:33:11.607Z,320
2017-04-13T14:34:24.135Z,320
2017-04-13T14:35:36.375Z,365
2017-04-13T14:36:48.285Z,415
2017-04-13T14:38:00.532Z,485
2017-04-13T14:39:12.788Z,620
2017-04-13T14:40:24.715Z,760
2017-04-13T14:41:36.356Z,830
2017-04-13T14:42:48.337Z,800
2017-04-13T14:44:00.581Z,735
2017-04-13T14:45:13.123Z,680
2017-04-13T14:46:25.376Z,605
2017-04-13T14:47:36.990Z,525
2017-04-13T14:48:49.537Z,465
2017-04-13T14:50:01.749Z,435
2017-04-13T14:51:14.298Z,420
2017-04-13T14:52:26.840Z,485
2017-04-13T14:53:38.470Z,535
2017-04-13T14:54:50.393Z,505
2017-04-13T14:56:02.030Z,465
2017-04-13T14:57:14.574Z,450
2017-04-13T14:58:27.175Z,380
2017-04-13T14:59:39.701Z,315
2017-04-13T15:00:52.238Z,275
2017-04-13T15:02:04.787Z,270
2017-04-13T15:03:17.319Z,280
2017-04-13T15:04:29.850Z,300
2017-04-13T15:05:42.379Z,360
2017-04-13T15:06:54.958Z,355
2017-04-13T15:08:07.497Z,345
2017-04-13T15:09:19.734Z,410
2017-04-13T15:10:32.262Z,405
2017-04-13T15:11:44.180Z,355
2017-04-13T15:12:56.697Z,335
2017-04-13T15:14:08.926Z,295
2017-04-13T15:15:21.173Z,280
2017-04-13T15:16:33.694Z,270
2017-04-13T15:17:45.663Z,270
2017-04-13T15:18:58.202Z,265
2017-04-13T15:20:10.449Z,265
2017-04-13T15:21:22.982Z,260
2017-04-13T15:22:35.518Z,265
2017-04-13T15:23:47.723Z,265
2017-04-13T15:25:00.266Z,265
2017-04-13T15:26:12.780Z,275
2017-04-13T15:27:25.333Z,285
2017-04-13T15:28:37.851Z,285
2017-04-13T15:29:50.363Z,320
2017-04-13T15:31:02.619Z,325
2017-04-13T15:32:15.159Z,350
2017-04-13T15:33:27.693Z,400
2017-04-13T15:34:40.251Z,440
2017-04-13T15:35:52.480Z,425
2017-04-13T15:37:04.715Z,405
2017-04-13T15:38:16.647Z,395
2017-04-13T15:39:28.882Z,395
2017-04-13T15:40:41.410Z,365
2017-04-13T15:41:53.987Z,305
2017-04-13T15:43:06.533Z,280
2017-04-13T15:44:19.069Z,240
2017-04-13T15:45:31.295Z,205
2017-04-13T15:46:43.514Z,200
2017-04-13T15:47:56.035Z,215
2017-04-13T15:49:08.538Z,255
2017-04-13T15:50:20.781Z,265
2017-04-13T15:51:33.327Z,270
2017-04-13T15:52:45.890Z,305
2017-04-13T15:53:58.415Z,320
2017-04-13T15:55:10.937Z,320
2017-04-13T15:56:23.161Z,330
2017-04-13T15:57:35.699Z,355
2017-04-13T15:58:48.270Z,395
2017-04-13T16:00:00.812Z,420
2017-04-13T16:01:13.399Z,405
2017-04-13T16:02:25.958Z,370
2017-04-13T16:03:37.879Z,325
2017-04-13T16:04:50.421Z,305
2017-04-13T16:06:02.975Z,305
2017-04-13T16:07:15.494Z,310
2017-04-13T16:08:27.736Z,310
2017-04-13T16:09:39.962Z,310
2017-04-13T16:10:52.508Z,310
2017-04-13T16:12:05.059Z,265
2017-04-13T16:13:17.574Z,255
2017-04-13T16:14:29.801Z,245
2017-04-13T16:15:42.318Z,215
2017-04-13T16:16:54.855Z,205
2017-04-13T16:18:07.403Z,190
2017-04-13T16:19:19.659Z,175
2017-04-13T16:20:31.894Z,175
2017-04-13T16:21:44.425Z,190
2017-04-13T16:22:56.987Z,200
2017-04-13T16:24:09.516Z,220
2017-04-13T16:25:22.062Z,250
2017-04-13T16:26:34.314Z,270
2017-04-13T16:27:46.851Z,275
2017-04-13T16:28:59.397Z,275
2017-04-13T16:30:11.936Z,270
2017-04-13T16:31:24.167Z,260
2017-04-13T16:32:36.708Z,255
2017-04-13T16:33:48.935Z,235
2017-04-13T16:35:01.180Z,220
2017-04-13T16:36:13.702Z,215
2017-04-13T16:37:25.923Z,225
2017-04-13T16:38:38.464Z,240
2017-04-13T16:39:50.980Z,255
2017-04-13T16:41:03.481Z,250
2017-04-13T16:42:16.005Z,245
2017-04-13T16:43:28.523Z,245
2017-04-13T16:44:40.750Z,235
2017-04-13T16:45:53.565Z,220
2017-04-13T16:47:06.124Z,215
2017-04-13T16:48:18.036Z,225
2017-04-13T16:49:30.556Z,220